createdAt,value
2022-12-08T00:01:49.070Z,-0.14
2022-12-08T00:04:50.618Z,-0.08
2022-12-08T00:07:52.043Z,-0.05
2022-12-08T00:10:53.476Z,-0.01
2022-12-08T00:13:54.847Z,0.04
2022-12-08T00:16:57.580Z,0.07
2022-12-08T00:19:58.992Z,0.11
2022-12-08T00:23:00.335Z,0.15
2022-12-08T00:26:05.751Z,0.20
2022-12-08T00:29:07.353Z,0.22
2022-12-08T00:32:08.723Z,0.25
2022-12-08T00:35:10.084Z,0.28
2022-12-08T00:38:11.503Z,0.32
2022-12-08T00:41:16.188Z,0.34
2022-12-08T00:44:18.520Z,0.38
2022-12-08T00:47:24.634Z,0.40
2022-12-08T00:50:26.440Z,0.43
2022-12-08T00:53:27.918Z,0.44
2022-12-08T00:56:29.449Z,0.47
2022-12-08T00:59:30.806Z,0.48
2022-12-08T01:02:32.137Z,0.50
2022-12-08T01:05:33.473Z,0.52
2022-12-08T01:08:37.257Z,0.55
2022-12-08T01:11:38.605Z,0.58
2022-12-08T01:14:39.916Z,0.60
2022-12-08T01:17:41.307Z,0.60
2022-12-08T01:20:42.694Z,0.60
2022-12-08T01:23:44.753Z,0.61
2022-12-08T01:26:47.303Z,0.59
2022-12-08T01:29:48.654Z,0.56
2022-12-08T01:32:49.986Z,0.52
2022-12-08T01:35:51.390Z,0.46
2022-12-08T01:38:53.933Z,0.39
2022-12-08T01:41:55.263Z,0.31
2022-12-08T01:45:02.959Z,0.27
2022-12-08T01:48:10.867Z,0.20
2022-12-08T01:51:12.684Z,0.18
2022-12-08T01:54:14.883Z,0.20
2022-12-08T01:57:33.688Z,0.19
2022-12-08T02:00:35.020Z,0.19
2022-12-08T02:04:03.372Z,0.18
2022-12-08T02:07:08.292Z,0.20
2022-12-08T02:10:13.772Z,0.24
2022-12-08T02:13:17.597Z,0.25
2022-12-08T02:16:34.332Z,0.29
2022-12-08T02:19:44.812Z,0.31
2022-12-08T02:23:20.273Z,0.34
2022-12-08T02:26:24.612Z,0.38
2022-12-08T02:29:29.044Z,0.41
2022-12-08T02:33:09.358Z,0.41
2022-12-08T02:36:36.694Z,0.44
2022-12-08T02:39:51.405Z,0.44
2022-12-08T02:43:02.161Z,0.47
2022-12-08T02:46:10.367Z,0.52
2022-12-08T02:49:11.833Z,0.51
2022-12-08T02:52:13.157Z,0.50
2022-12-08T02:55:33.761Z,0.53
2022-12-08T02:58:52.444Z,0.53
2022-12-08T03:02:23.674Z,0.49
2022-12-08T03:05:55.651Z,0.44
2022-12-08T03:09:07.014Z,0.44
2022-12-08T03:12:36.479Z,0.40
2022-12-08T03:15:39.069Z,0.37
2022-12-08T03:18:45.392Z,0.33
2022-12-08T03:21:51.505Z,0.31
2022-12-08T03:24:53.751Z,0.29
2022-12-08T03:27:55.104Z,0.29
2022-12-08T03:30:59.729Z,0.28
2022-12-08T03:34:02.976Z,0.30
2022-12-08T03:37:04.399Z,0.29
2022-12-08T03:40:09.581Z,0.29
2022-12-08T03:43:10.945Z,0.32
2022-12-08T03:46:12.296Z,0.32
2022-12-08T03:49:13.670Z,0.34
2022-12-08T03:52:15.346Z,0.38
2022-12-08T03:55:17.175Z,0.36
2022-12-08T03:58:18.528Z,0.36
2022-12-08T04:01:20.401Z,0.37
2022-12-08T04:04:21.753Z,0.37
2022-12-08T04:07:23.111Z,0.32
2022-12-08T04:10:24.437Z,0.30
2022-12-08T04:13:25.813Z,0.25
2022-12-08T04:16:27.215Z,0.25
2022-12-08T04:19:28.892Z,0.23
2022-12-08T04:22:30.228Z,0.19
2022-12-08T04:25:31.933Z,0.16
2022-12-08T04:28:33.489Z,0.19
2022-12-08T04:31:34.957Z,0.17
2022-12-08T04:34:36.290Z,0.16
2022-12-08T04:37:37.618Z,0.15
2022-12-08T04:40:39.590Z,0.16
2022-12-08T04:43:40.986Z,0.10
2022-12-08T04:46:43.776Z,0.08
2022-12-08T04:49:45.311Z,0.00
2022-12-08T04:52:46.702Z,-0.05
2022-12-08T04:55:48.080Z,-0.05
2022-12-08T04:58:49.445Z,-0.05
2022-12-08T05:01:50.929Z,-0.08
2022-12-08T05:04:52.321Z,-0.09
2022-12-08T05:07:53.809Z,-0.10
2022-12-08T05:11:05.075Z,-0.10
2022-12-08T05:14:08.375Z,-0.10
2022-12-08T05:17:10.040Z,-0.09
2022-12-08T05:20:11.797Z,-0.05
2022-12-08T05:23:13.175Z,-0.08
2022-12-08T05:26:14.488Z,-0.06
2022-12-08T05:29:15.845Z,-0.06
2022-12-08T05:32:17.194Z,-0.04
2022-12-08T05:35:18.551Z,-0.01
2022-12-08T05:38:19.902Z,0.03
2022-12-08T05:41:21.276Z,0.03
2022-12-08T05:44:22.640Z,0.05
2022-12-08T05:47:23.973Z,0.03
2022-12-08T05:50:25.321Z,0.01
2022-12-08T05:53:31.538Z,-0.02
2022-12-08T05:56:32.884Z,-0.05
2022-12-08T05:59:34.270Z,-0.05
2022-12-08T06:02:35.846Z,-0.04
2022-12-08T06:05:37.636Z,-0.01
2022-12-08T06:08:38.979Z,0.03
2022-12-08T06:11:40.374Z,0.03
2022-12-08T06:14:42.002Z,0.05
2022-12-08T06:17:43.345Z,0.07
2022-12-08T06:20:44.664Z,0.07
2022-12-08T06:23:51.234Z,0.10
2022-12-08T06:26:52.592Z,0.08
2022-12-08T06:29:54.062Z,0.08
2022-12-08T06:32:55.449Z,0.10
2022-12-08T06:35:58.577Z,0.11
2022-12-08T06:39:00.181Z,0.11
2022-12-08T06:42:01.542Z,0.15
2022-12-08T06:45:03.439Z,0.15
2022-12-08T06:48:04.890Z,0.13
2022-12-08T06:51:08.365Z,0.12
2022-12-08T06:54:09.677Z,0.14
2022-12-08T06:57:11.026Z,0.15
2022-12-08T07:00:12.916Z,0.16
2022-12-08T07:03:14.331Z,0.15
2022-12-08T07:06:19.062Z,0.16
2022-12-08T07:09:20.454Z,0.14
2022-12-08T07:12:21.792Z,0.15
2022-12-08T07:15:23.139Z,0.17
2022-12-08T07:18:24.496Z,0.19
2022-12-08T07:21:25.961Z,0.19
2022-12-08T07:24:27.320Z,0.17
2022-12-08T07:27:28.704Z,0.13
2022-12-08T07:30:30.193Z,0.10
2022-12-08T07:33:32.529Z,0.03
2022-12-08T07:36:33.880Z,0.02
2022-12-08T07:39:35.233Z,0.01
2022-12-08T07:42:36.652Z,-0.02
2022-12-08T07:45:38.021Z,0.04
2022-12-08T07:48:39.788Z,0.02
2022-12-08T07:51:41.182Z,0.02
2022-12-08T07:54:42.653Z,-0.02
2022-12-08T07:57:44.059Z,-0.02
2022-12-08T08:00:45.589Z,-0.06
2022-12-08T08:03:47.094Z,-0.13
2022-12-08T08:06:48.452Z,-0.13
2022-12-08T08:09:49.875Z,-0.15
2022-12-08T08:12:51.215Z,-0.13
2022-12-08T08:15:52.679Z,-0.14
2022-12-08T08:18:54.277Z,-0.12
2022-12-08T08:21:55.657Z,-0.06
2022-12-08T08:24:57.038Z,-0.04
2022-12-08T08:27:58.838Z,-0.05
2022-12-08T08:31:01.215Z,-0.05
2022-12-08T08:34:02.665Z,-0.09
2022-12-08T08:37:04.158Z,-0.10
2022-12-08T08:40:06.409Z,-0.12
2022-12-08T08:43:07.940Z,-0.18
2022-12-08T08:46:09.797Z,-0.19
2022-12-08T08:49:11.207Z,-0.24
2022-12-08T08:52:12.702Z,-0.25
2022-12-08T08:55:14.093Z,-0.23
2022-12-08T08:58:15.868Z,-0.22
2022-12-08T09:01:20.083Z,-0.15
2022-12-08T09:04:22.529Z,-0.09
2022-12-08T09:07:23.932Z,0.13
2022-12-08T09:10:25.317Z,0.21
2022-12-08T09:13:26.708Z,0.32
2022-12-08T09:16:28.779Z,0.34
2022-12-08T09:19:30.201Z,0.38
2022-12-08T09:22:31.731Z,0.41
2022-12-08T09:25:33.073Z,0.45
2022-12-08T09:28:34.873Z,0.46
2022-12-08T09:31:36.629Z,0.47
2022-12-08T09:34:38.006Z,0.58
2022-12-08T09:37:39.333Z,0.58
2022-12-08T09:40:51.941Z,0.67
2022-12-08T09:44:21.335Z,0.74
2022-12-08T09:47:47.881Z,0.84
2022-12-08T09:50:57.484Z,0.96
2022-12-08T09:54:06.914Z,0.98
2022-12-08T09:57:15.580Z,0.94
2022-12-08T10:00:17.299Z,0.93
2022-12-08T10:03:20.638Z,1.12
2022-12-08T10:06:34.347Z,1.31
2022-12-08T10:10:13.070Z,1.48
2022-12-08T10:13:40.723Z,1.29
2022-12-08T10:16:48.027Z,1.26
2022-12-08T10:19:55.307Z,1.19
2022-12-08T10:23:13.454Z,1.18
2022-12-08T10:26:17.880Z,1.24
2022-12-08T10:29:19.203Z,1.33
2022-12-08T10:32:23.447Z,1.47
2022-12-08T10:35:24.848Z,1.67
2022-12-08T10:38:34.911Z,2.03
2022-12-08T10:41:36.243Z,2.37
2022-12-08T10:45:00.649Z,2.42
2022-12-08T10:48:05.544Z,2.36
2022-12-08T10:51:41.296Z,2.06
2022-12-08T10:54:42.896Z,1.67
2022-12-08T10:57:44.906Z,1.49
2022-12-08T11:00:46.403Z,1.50
2022-12-08T11:03:51.045Z,1.53
2022-12-08T11:06:52.867Z,1.57
2022-12-08T11:09:57.116Z,1.69
2022-12-08T11:13:01.064Z,1.85
2022-12-08T11:16:06.275Z,1.99
2022-12-08T11:19:15.777Z,2.17
2022-12-08T11:22:38.955Z,2.13
2022-12-08T11:25:40.357Z,2.06
2022-12-08T11:28:41.799Z,1.98
2022-12-08T11:31:59.413Z,2.04
2022-12-08T11:35:04.227Z,1.95
2022-12-08T11:38:23.103Z,1.81
2022-12-08T11:41:30.461Z,1.76
2022-12-08T11:44:40.778Z,1.76
2022-12-08T11:47:42.065Z,1.75
2022-12-08T11:50:50.526Z,1.65
2022-12-08T11:54:13.366Z,1.58
2022-12-08T11:57:14.726Z,1.51
2022-12-08T12:00:17.637Z,1.53
2022-12-08T12:03:27.253Z,1.53
2022-12-08T12:06:55.830Z,1.58
2022-12-08T12:10:15.919Z,1.65
2022-12-08T12:13:38.422Z,1.78
2022-12-08T12:16:59.452Z,1.84
2022-12-08T12:20:09.690Z,1.98
2022-12-08T12:23:20.987Z,2.27
2022-12-08T12:26:22.279Z,2.19
2022-12-08T12:29:27.671Z,2.11
2022-12-08T12:32:45.345Z,1.98
2022-12-08T12:35:47.332Z,1.99
2022-12-08T12:38:54.186Z,1.95
2022-12-08T12:42:04.719Z,1.93
2022-12-08T12:45:15.152Z,1.87
2022-12-08T12:48:25.138Z,1.68
2022-12-08T12:51:41.732Z,1.68
2022-12-08T12:54:50.076Z,1.77
2022-12-08T12:57:54.859Z,1.83
2022-12-08T13:01:11.553Z,1.89
2022-12-08T13:04:13.311Z,1.96
2022-12-08T13:07:24.984Z,1.85
2022-12-08T13:10:31.148Z,1.81
2022-12-08T13:13:33.168Z,1.77
2022-12-08T13:16:38.901Z,1.66
2022-12-08T13:19:41.502Z,1.53
2022-12-08T13:23:01.253Z,1.45
2022-12-08T13:26:24.725Z,1.40
2022-12-08T13:29:26.533Z,1.31
2022-12-08T13:33:18.106Z,1.24
2022-12-08T13:36:33.707Z,1.25
2022-12-08T13:39:40.880Z,1.32
2022-12-08T13:42:43.798Z,1.41
2022-12-08T13:53:49.096Z,1.49
2022-12-08T13:59:47.744Z,1.41
2022-12-08T14:02:52.673Z,1.44
2022-12-08T14:09:19.094Z,1.41
2022-12-08T14:12:24.679Z,1.47
2022-12-08T14:15:26.286Z,1.46
2022-12-08T14:18:31.022Z,1.49
2022-12-08T14:21:36.016Z,1.53
2022-12-08T14:24:38.008Z,1.51
2022-12-08T14:27:39.554Z,1.47
2022-12-08T14:30:40.979Z,1.49
2022-12-08T14:33:42.587Z,1.46
2022-12-08T14:36:44.125Z,1.42
2022-12-08T14:39:46.374Z,1.36
2022-12-08T14:43:03.968Z,1.34
2022-12-08T14:46:22.744Z,1.27
2022-12-08T14:49:40.109Z,1.21
2022-12-08T14:52:44.849Z,1.21
2022-12-08T14:55:48.866Z,1.21
2022-12-08T14:59:03.351Z,1.17
2022-12-08T15:02:13.084Z,1.16
2022-12-08T15:05:20.391Z,1.11
2022-12-08T15:08:22.014Z,1.13
2022-12-08T15:11:23.326Z,1.16
2022-12-08T15:14:28.546Z,1.19
2022-12-08T15:17:29.867Z,1.14
2022-12-08T15:20:51.673Z,1.05
2022-12-08T15:23:53.061Z,1.08
2022-12-08T15:26:54.680Z,1.01
2022-12-08T15:29:56.036Z,0.98
2022-12-08T15:32:57.360Z,0.91
2022-12-08T15:35:58.700Z,0.84
2022-12-08T15:39:00.151Z,0.81
2022-12-08T15:42:03.185Z,0.82
2022-12-08T15:45:04.904Z,0.85
2022-12-08T15:48:06.459Z,0.88
2022-12-08T15:51:07.921Z,0.87
2022-12-08T15:54:09.264Z,0.90
2022-12-08T15:58:16.987Z,0.91
2022-12-08T16:00:53.883Z,0.90
2022-12-08T16:07:29.054Z,0.91
2022-12-08T16:10:52.468Z,0.79
2022-12-08T16:14:16.685Z,0.63
2022-12-08T16:17:15.129Z,0.53
2022-12-08T16:20:17.365Z,0.40
2022-12-08T16:23:41.065Z,0.32
2022-12-08T16:30:01.762Z,0.19
2022-12-08T16:33:03.280Z,0.10
2022-12-08T16:36:04.702Z,0.01
2022-12-08T16:39:06.117Z,-0.05
2022-12-08T16:42:13.282Z,0.04
2022-12-08T16:45:21.267Z,0.14
2022-12-08T16:48:22.595Z,0.24
2022-12-08T16:51:27.105Z,0.24
2022-12-08T16:54:29.250Z,0.24
2022-12-08T16:57:30.579Z,0.29
2022-12-08T17:00:33.703Z,0.39
2022-12-08T17:03:35.043Z,0.46
2022-12-08T17:06:36.418Z,0.43
2022-12-08T17:09:37.762Z,0.42
2022-12-08T17:12:39.291Z,0.41
2022-12-08T17:15:40.639Z,0.48
2022-12-08T17:18:42.092Z,0.49
2022-12-08T17:21:43.856Z,0.54
2022-12-08T17:24:45.416Z,0.53
2022-12-08T17:27:46.756Z,0.45
2022-12-08T17:30:48.092Z,0.45
2022-12-08T17:33:49.433Z,0.43
2022-12-08T17:36:51.328Z,0.38
2022-12-08T17:39:52.725Z,0.27
2022-12-08T17:42:54.083Z,0.11
2022-12-08T17:45:55.651Z,-0.04
2022-12-08T17:48:56.997Z,-0.08
2022-12-08T17:52:01.840Z,-0.10
2022-12-08T17:55:03.539Z,-0.14
2022-12-08T17:58:05.809Z,-0.21
2022-12-08T18:01:08.895Z,-0.37
2022-12-08T18:04:12.217Z,-0.57
2022-12-08T18:07:13.722Z,-0.65
2022-12-08T18:10:15.901Z,-0.78
2022-12-08T18:13:17.246Z,-0.93
2022-12-08T18:16:24.640Z,-0.98
2022-12-08T18:19:26.054Z,-1.12
2022-12-08T18:22:27.526Z,-1.16
2022-12-08T18:25:28.853Z,-1.21
2022-12-08T18:28:30.207Z,-1.34
2022-12-08T18:31:31.622Z,-1.35
2022-12-08T18:34:34.011Z,-1.36
2022-12-08T18:37:35.335Z,-1.43
2022-12-08T18:40:36.679Z,-1.52
2022-12-08T18:43:38.745Z,-1.60
2022-12-08T18:46:40.124Z,-1.67
2022-12-08T18:49:41.591Z,-1.76
2022-12-08T18:52:45.056Z,-1.80
2022-12-08T18:55:46.409Z,-1.80
2022-12-08T18:58:47.856Z,-1.75
2022-12-08T19:01:49.334Z,-1.81
2022-12-08T19:04:50.780Z,-1.85
2022-12-08T19:07:52.236Z,-1.94
2022-12-08T19:10:53.598Z,-1.97
2022-12-08T19:13:55.696Z,-2.02
2022-12-08T19:16:57.796Z,-2.08
2022-12-08T19:19:59.420Z,-2.07
2022-12-08T19:23:00.777Z,-2.06
2022-12-08T19:26:02.686Z,-2.10
2022-12-08T19:29:04.166Z,-2.03
2022-12-08T19:32:05.633Z,-2.06
2022-12-08T19:35:07.590Z,-2.07
2022-12-08T19:38:09.138Z,-2.04
2022-12-08T19:41:10.693Z,-2.04
2022-12-08T19:44:27.013Z,-2.02
2022-12-08T19:47:28.559Z,-2.04
2022-12-08T19:50:30.037Z,-2.06
2022-12-08T19:53:31.494Z,-2.05
2022-12-08T19:56:32.898Z,-2.08
2022-12-08T19:59:34.306Z,-2.13
2022-12-08T20:02:35.852Z,-2.11
2022-12-08T20:05:39.750Z,-2.16
2022-12-08T20:08:43.746Z,-2.18
2022-12-08T20:11:49.026Z,-2.25
2022-12-08T20:14:50.458Z,-2.25
2022-12-08T20:17:51.840Z,-2.25
2022-12-08T20:20:53.219Z,-2.25
2022-12-08T20:23:55.691Z,-2.23
2022-12-08T20:26:57.097Z,-2.21
2022-12-08T20:29:58.514Z,-2.27
2022-12-08T20:32:59.951Z,-2.30
2022-12-08T20:36:05.145Z,-2.27
2022-12-08T20:39:11.589Z,-2.23
2022-12-08T20:42:13.232Z,-2.26
2022-12-08T20:45:14.567Z,-2.28
2022-12-08T20:48:15.999Z,-2.36
2022-12-08T20:51:19.422Z,-2.43
2022-12-08T20:54:21.002Z,-2.44
2022-12-08T20:57:22.449Z,-2.49
2022-12-08T21:00:24.366Z,-2.66
2022-12-08T21:03:25.913Z,-2.69
2022-12-08T21:06:27.424Z,-2.76
2022-12-08T21:09:29.072Z,-2.81
2022-12-08T21:12:30.708Z,-2.91
2022-12-08T21:15:32.279Z,-2.95
2022-12-08T21:18:39.140Z,-2.98
2022-12-08T21:21:41.059Z,-3.08
2022-12-08T21:24:42.968Z,-3.04
2022-12-08T21:27:44.349Z,-3.03
2022-12-08T21:30:45.934Z,-3.11
2022-12-08T21:33:48.211Z,-3.04
2022-12-08T21:36:49.861Z,-3.10
2022-12-08T21:39:51.517Z,-3.07
2022-12-08T21:42:53.094Z,-3.22
2022-12-08T21:45:54.551Z,-3.30
2022-12-08T21:48:56.138Z,-3.34
2022-12-08T21:51:57.951Z,-3.29
2022-12-08T21:54:59.342Z,-3.40
2022-12-08T21:58:00.915Z,-3.46
2022-12-08T22:01:10.742Z,-3.53
2022-12-08T22:04:16.509Z,-3.56
2022-12-08T22:07:19.607Z,-3.74
2022-12-08T22:10:21.147Z,-3.74
2022-12-08T22:13:22.649Z,-3.75
2022-12-08T22:16:24.135Z,-3.77
2022-12-08T22:19:25.649Z,-3.74
2022-12-08T22:22:26.949Z,-3.65
2022-12-08T22:25:28.404Z,-3.60
2022-12-08T22:28:33.882Z,-3.65
2022-12-08T22:31:35.302Z,-3.71
2022-12-08T22:34:36.764Z,-3.71
2022-12-08T22:37:38.150Z,-3.67
2022-12-08T22:40:42.322Z,-3.74
2022-12-08T22:43:44.461Z,-3.78
2022-12-08T22:46:45.987Z,-3.68
2022-12-08T22:49:47.371Z,-3.66
2022-12-08T22:52:48.686Z,-3.60
2022-12-08T22:55:50.003Z,-3.61
2022-12-08T22:58:51.353Z,-3.68
2022-12-08T23:01:52.697Z,-3.69
2022-12-08T23:04:57.244Z,-3.68
2022-12-08T23:07:58.927Z,-3.64
2022-12-08T23:11:00.275Z,-3.80
2022-12-08T23:14:01.745Z,-3.73
2022-12-08T23:17:03.354Z,-3.71
2022-12-08T23:20:06.221Z,-3.66
2022-12-08T23:23:08.104Z,-3.75
2022-12-08T23:26:31.228Z,-3.75
2022-12-08T23:29:32.937Z,-3.70
2022-12-08T23:32:34.663Z,-3.64
2022-12-08T23:35:36.314Z,-3.65
2022-12-08T23:38:38.465Z,-3.67
2022-12-08T23:41:39.840Z,-3.72
2022-12-08T23:44:41.172Z,-3.70
2022-12-08T23:47:42.787Z,-3.67
2022-12-08T23:50:44.343Z,-3.62
2022-12-08T23:53:46.048Z,-3.60
2022-12-08T23:56:47.521Z,-3.58
2022-12-08T23:59:48.873Z,-3.65
